createdAt,value
2017-08-25T00:02:05.823Z,68.30
2017-08-25T00:04:33.325Z,68.20
2017-08-25T00:07:00.818Z,68.20
2017-08-25T00:09:28.453Z,68.10
2017-08-25T00:11:55.950Z,68.30
2017-08-25T00:14:23.445Z,68.50
2017-08-25T00:16:51.016Z,68.70
2017-08-25T00:19:18.506Z,68.90
2017-08-25T00:21:46.028Z,68.80
2017-08-25T00:24:13.597Z,68.70
2017-08-25T00:26:41.105Z,68.70
2017-08-25T00:29:08.633Z,68.70
2017-08-25T00:31:36.125Z,68.70
2017-08-25T00:34:03.646Z,69.00
2017-08-25T00:36:31.141Z,69.60
2017-08-25T00:38:58.654Z,69.90
2017-08-25T00:41:26.190Z,70.00
2017-08-25T00:43:53.722Z,70.00
2017-08-25T00:46:21.211Z,69.90
2017-08-25T00:48:48.703Z,69.50
2017-08-25T00:51:16.325Z,69.70
2017-08-25T00:53:43.808Z,70.10
2017-08-25T00:56:11.336Z,69.80
2017-08-25T00:58:38.845Z,69.70
2017-08-25T01:01:06.405Z,69.70
2017-08-25T01:03:33.921Z,69.70
2017-08-25T01:06:01.481Z,69.60
2017-08-25T01:08:29.039Z,69.80
2017-08-25T01:10:56.568Z,69.90
2017-08-25T01:13:24.047Z,69.80
2017-08-25T01:15:51.583Z,70.70
2017-08-25T01:18:19.163Z,70.00
2017-08-25T01:20:46.733Z,70.60
2017-08-25T01:23:14.284Z,70.60
2017-08-25T01:25:41.833Z,71.20
2017-08-25T01:28:09.356Z,71.90
2017-08-25T01:30:36.840Z,72.60
2017-08-25T01:33:04.361Z,72.80
2017-08-25T01:35:31.852Z,72.80
2017-08-25T01:37:59.386Z,72.40
2017-08-25T01:40:26.885Z,72.40
2017-08-25T01:42:54.398Z,72.40
2017-08-25T01:45:21.917Z,72.40
2017-08-25T01:47:49.421Z,72.40
2017-08-25T01:50:16.920Z,72.20
2017-08-25T01:52:44.426Z,72.00
2017-08-25T01:55:11.924Z,72.40
2017-08-25T01:57:39.449Z,72.50
2017-08-25T02:00:07.041Z,72.60
2017-08-25T02:02:34.538Z,72.20
2017-08-25T02:05:02.065Z,72.20
2017-08-25T02:07:29.552Z,72.10
2017-08-25T02:09:57.064Z,72.00
2017-08-25T02:12:24.633Z,72.10
2017-08-25T02:14:52.142Z,72.50
2017-08-25T02:17:19.670Z,73.20
2017-08-25T02:19:47.156Z,73.50
2017-08-25T02:22:14.688Z,73.30
2017-08-25T02:24:42.211Z,73.40
2017-08-25T02:27:09.748Z,73.20
2017-08-25T02:29:37.328Z,73.00
2017-08-25T02:32:04.819Z,72.50
2017-08-25T02:34:32.465Z,72.70
2017-08-25T02:37:00.000Z,72.60
2017-08-25T02:39:27.560Z,72.70
2017-08-25T02:41:55.068Z,72.60
2017-08-25T02:44:22.576Z,72.40
2017-08-25T02:46:50.092Z,72.40
2017-08-25T02:49:17.593Z,72.40
2017-08-25T02:51:45.173Z,72.50
2017-08-25T02:54:12.664Z,72.10
2017-08-25T02:56:40.165Z,72.00
2017-08-25T02:59:07.673Z,72.10
2017-08-25T03:01:35.182Z,72.00
2017-08-25T03:04:02.688Z,72.20
2017-08-25T03:06:30.328Z,72.40
2017-08-25T03:08:57.860Z,72.60
2017-08-25T03:11:25.417Z,72.90
2017-08-25T03:13:52.957Z,72.90
2017-08-25T03:16:20.525Z,73.60
2017-08-25T03:18:48.093Z,74.50
2017-08-25T03:21:15.612Z,75.30
2017-08-25T03:23:43.096Z,75.70
2017-08-25T03:26:10.605Z,75.50
2017-08-25T03:28:38.120Z,75.30
2017-08-25T03:31:05.681Z,75.20
2017-08-25T03:33:33.241Z,75.10
2017-08-25T03:36:00.761Z,74.90
2017-08-25T03:38:28.348Z,74.90
2017-08-25T03:40:55.837Z,75.20
2017-08-25T03:43:23.324Z,75.60
2017-08-25T03:45:50.829Z,75.90
2017-08-25T03:48:18.375Z,76.30
2017-08-25T03:50:45.912Z,76.40
2017-08-25T03:53:13.495Z,76.60
2017-08-25T03:55:40.990Z,76.60
2017-08-25T03:58:08.500Z,76.70
2017-08-25T04:00:35.989Z,76.40
2017-08-25T04:03:03.524Z,77.10
2017-08-25T04:05:31.016Z,76.40
2017-08-25T04:07:59.369Z,76.60
2017-08-25T04:10:27.043Z,76.70
2017-08-25T04:12:54.524Z,76.60
2017-08-25T04:15:22.037Z,76.50
2017-08-25T04:17:49.588Z,76.60
2017-08-25T04:20:17.112Z,76.80
2017-08-25T04:22:44.609Z,76.80
2017-08-25T04:25:12.104Z,76.80
2017-08-25T04:27:39.632Z,76.90
2017-08-25T04:30:07.188Z,77.20
2017-08-25T04:32:34.680Z,77.40
2017-08-25T04:35:02.296Z,77.70
2017-08-25T04:37:29.854Z,77.90
2017-08-25T04:39:57.345Z,78.00
2017-08-25T04:42:24.878Z,78.10
2017-08-25T04:44:52.430Z,78.50
2017-08-25T04:47:19.959Z,78.80
2017-08-25T04:49:47.452Z,79.00
2017-08-25T04:52:14.948Z,79.10
2017-08-25T04:54:42.559Z,78.90
2017-08-25T04:57:10.039Z,78.60
2017-08-25T04:59:37.569Z,78.40
2017-08-25T05:02:05.057Z,78.60
2017-08-25T05:04:32.572Z,78.60
2017-08-25T05:07:00.140Z,78.70
2017-08-25T05:09:27.715Z,78.10
2017-08-25T05:11:55.260Z,78.70
2017-08-25T05:14:22.759Z,78.70
2017-08-25T05:16:50.393Z,78.60
2017-08-25T05:19:17.945Z,78.20
2017-08-25T05:21:45.506Z,77.80
2017-08-25T05:24:12.991Z,77.70
2017-08-25T05:26:40.489Z,77.60
2017-08-25T05:29:08.079Z,77.30
2017-08-25T05:31:35.627Z,77.20
2017-08-25T05:34:03.140Z,77.20
2017-08-25T05:36:31.557Z,77.10
2017-08-25T05:38:59.121Z,77.10
2017-08-25T05:41:26.683Z,77.10
2017-08-25T05:43:54.192Z,77.20
2017-08-25T05:46:21.676Z,77.20
2017-08-25T05:48:49.193Z,77.30
2017-08-25T05:51:16.721Z,77.10
2017-08-25T05:53:44.236Z,76.80
2017-08-25T05:56:11.729Z,76.80
2017-08-25T05:58:39.293Z,76.60
2017-08-25T06:01:06.964Z,76.80
2017-08-25T06:03:34.455Z,77.00
2017-08-25T06:06:02.086Z,77.20
2017-08-25T06:08:29.635Z,77.00
2017-08-25T06:10:57.125Z,77.00
2017-08-25T06:13:24.633Z,77.10
2017-08-25T06:15:52.124Z,77.40
2017-08-25T06:18:19.645Z,77.40
2017-08-25T06:20:47.140Z,77.10
2017-08-25T06:23:14.674Z,76.70
2017-08-25T06:25:42.161Z,76.50
2017-08-25T06:28:09.692Z,76.50
2017-08-25T06:30:37.195Z,76.50
2017-08-25T06:33:04.680Z,76.70
2017-08-25T06:35:32.192Z,76.30
2017-08-25T06:37:59.695Z,76.60
2017-08-25T06:40:27.216Z,76.50
2017-08-25T06:42:54.738Z,76.80
2017-08-25T06:45:22.276Z,76.30
2017-08-25T06:47:49.756Z,76.10
2017-08-25T06:50:17.251Z,76.00
2017-08-25T06:52:44.776Z,76.20
2017-08-25T06:55:12.268Z,75.70
2017-08-25T06:57:39.861Z,75.40
2017-08-25T07:00:08.125Z,74.90
2017-08-25T07:02:35.654Z,74.90
2017-08-25T07:05:03.255Z,74.90
2017-08-25T07:07:30.819Z,74.30
2017-08-25T07:09:58.350Z,74.30
2017-08-25T07:12:25.933Z,74.20
2017-08-25T07:14:53.420Z,73.70
2017-08-25T07:17:20.939Z,74.10
2017-08-25T07:19:48.517Z,74.00
2017-08-25T07:22:16.119Z,74.20
2017-08-25T07:24:43.647Z,74.30
2017-08-25T07:27:11.152Z,73.30
2017-08-25T07:29:38.671Z,73.40
2017-08-25T07:32:06.181Z,72.80
2017-08-25T07:34:33.716Z,73.00
2017-08-25T07:37:01.228Z,72.60
2017-08-25T07:39:28.713Z,72.40
2017-08-25T07:41:56.207Z,72.50
2017-08-25T07:44:23.727Z,72.80
2017-08-25T07:46:51.217Z,71.60
2017-08-25T07:49:18.814Z,71.50
2017-08-25T07:51:46.373Z,71.50
2017-08-25T07:54:13.865Z,70.80
2017-08-25T07:56:41.379Z,71.70
2017-08-25T07:59:08.868Z,71.30
2017-08-25T08:01:36.376Z,70.90
2017-08-25T08:04:03.906Z,70.70
2017-08-25T08:06:31.391Z,70.40
2017-08-25T08:08:58.872Z,71.50
2017-08-25T08:11:26.425Z,70.40
2017-08-25T08:13:53.956Z,69.80
2017-08-25T08:16:21.457Z,70.20
2017-08-25T08:18:48.992Z,70.20
2017-08-25T08:21:16.515Z,70.20
2017-08-25T08:23:44.008Z,69.40
2017-08-25T08:26:11.536Z,68.90
2017-08-25T08:28:39.038Z,69.10
2017-08-25T08:31:06.552Z,68.30
2017-08-25T08:33:34.068Z,68.20
2017-08-25T08:36:01.610Z,68.20
2017-08-25T08:38:29.107Z,67.80
2017-08-25T08:40:56.624Z,67.80
2017-08-25T08:43:24.154Z,67.00
2017-08-25T08:45:51.668Z,67.20
2017-08-25T08:48:19.176Z,67.80
2017-08-25T08:50:46.694Z,67.40
2017-08-25T08:53:14.205Z,66.90
2017-08-25T08:55:41.727Z,66.70
2017-08-25T08:58:09.216Z,66.70
2017-08-25T09:00:36.759Z,66.10
2017-08-25T09:03:04.248Z,65.70
2017-08-25T09:05:37.616Z,66.40
2017-08-25T09:08:05.196Z,66.30
2017-08-25T09:10:32.720Z,65.80
2017-08-25T09:13:00.295Z,65.10
2017-08-25T09:15:27.809Z,65.30
2017-08-25T09:17:55.345Z,65.20
2017-08-25T09:20:22.841Z,64.80
2017-08-25T09:22:50.364Z,64.70
2017-08-25T09:25:17.863Z,62.90
2017-08-25T09:27:45.376Z,62.80
2017-08-25T09:30:12.902Z,62.30
2017-08-25T09:32:40.475Z,62.90
2017-08-25T09:35:07.966Z,62.80
2017-08-25T09:37:35.493Z,61.80
2017-08-25T09:40:02.987Z,60.50
2017-08-25T09:42:30.501Z,59.60
2017-08-25T09:44:58.046Z,59.70
2017-08-25T09:47:25.615Z,59.70
2017-08-25T09:49:53.104Z,60.40
2017-08-25T09:52:20.615Z,61.10
2017-08-25T09:54:48.124Z,60.40
2017-08-25T09:57:15.612Z,59.70
2017-08-25T09:59:43.141Z,59.60
2017-08-25T10:02:10.631Z,59.30
2017-08-25T10:04:38.198Z,58.50
2017-08-25T10:07:05.779Z,57.80
2017-08-25T10:09:33.318Z,57.30
2017-08-25T10:12:00.894Z,57.80
2017-08-25T10:14:28.437Z,57.30
2017-08-25T10:16:55.953Z,57.10
2017-08-25T10:19:23.485Z,57.20
2017-08-25T10:21:50.975Z,56.50
2017-08-25T10:24:18.485Z,56.30
2017-08-25T10:26:46.017Z,56.20
2017-08-25T10:29:13.581Z,55.80
2017-08-25T10:31:41.112Z,56.40
2017-08-25T10:34:20.611Z,56.80
2017-08-25T10:37:00.113Z,55.70
2017-08-25T10:39:39.390Z,54.90
2017-08-25T10:45:11.520Z,55.70
2017-08-25T10:47:39.009Z,54.10
2017-08-25T10:50:06.549Z,54.30
2017-08-25T10:52:34.037Z,54.40
2017-08-25T10:55:01.579Z,54.90
2017-08-25T10:57:29.074Z,54.60
2017-08-25T10:59:56.569Z,54.00
2017-08-25T11:02:24.081Z,53.00
2017-08-25T11:04:51.566Z,53.90
2017-08-25T11:07:19.084Z,52.60
2017-08-25T11:09:46.593Z,54.30
2017-08-25T11:12:14.160Z,53.50
2017-08-25T11:14:41.640Z,53.50
2017-08-25T11:17:09.150Z,53.60
2017-08-25T11:19:36.695Z,52.70
2017-08-25T11:22:04.281Z,50.80
2017-08-25T11:24:31.804Z,51.10
2017-08-25T11:26:59.307Z,51.30
2017-08-25T11:29:27.561Z,49.70
2017-08-25T11:31:55.084Z,49.70
2017-08-25T11:34:22.619Z,49.40
2017-08-25T11:36:50.109Z,49.10
2017-08-25T11:39:17.636Z,48.90
2017-08-25T11:41:45.173Z,48.70
2017-08-25T11:44:12.720Z,48.30
2017-08-25T11:46:40.293Z,48.10
2017-08-25T11:49:07.822Z,48.40
2017-08-25T11:51:35.312Z,48.80
2017-08-25T11:54:02.857Z,49.00
2017-08-25T11:56:30.425Z,48.00
2017-08-25T11:58:57.925Z,48.40
2017-08-25T12:01:25.454Z,47.50
2017-08-25T12:03:52.993Z,47.90
2017-08-25T12:06:20.488Z,48.20
2017-08-25T12:08:48.071Z,47.80
2017-08-25T12:11:15.552Z,47.80
2017-08-25T12:13:43.072Z,47.60
2017-08-25T12:16:10.682Z,46.90
2017-08-25T12:18:38.326Z,47.30
2017-08-25T12:21:05.893Z,46.20
2017-08-25T12:23:33.456Z,46.20
2017-08-25T12:26:01.024Z,45.40
2017-08-25T12:28:28.585Z,45.80
2017-08-25T12:30:56.111Z,46.80
2017-08-25T12:33:23.684Z,45.80
2017-08-25T12:35:51.261Z,44.90
2017-08-25T12:38:18.816Z,45.30
2017-08-25T12:40:46.325Z,45.10
2017-08-25T12:43:13.929Z,45.40
2017-08-25T12:45:41.491Z,45.70
2017-08-25T12:48:08.984Z,45.30
2017-08-25T12:50:36.601Z,45.10
2017-08-25T12:53:04.122Z,45.00
2017-08-25T12:55:31.617Z,45.10
2017-08-25T12:57:59.105Z,44.80
2017-08-25T13:00:26.628Z,44.70
2017-08-25T13:02:54.122Z,44.20
2017-08-25T13:05:21.646Z,45.00
2017-08-25T13:07:49.148Z,43.70
2017-08-25T13:10:16.672Z,44.10
2017-08-25T13:12:44.215Z,43.50
2017-08-25T13:15:11.783Z,44.40
2017-08-25T13:17:39.267Z,44.50
2017-08-25T13:20:06.790Z,43.80
2017-08-25T13:22:34.280Z,44.30
2017-08-25T13:25:01.769Z,44.50
2017-08-25T13:27:29.296Z,44.40
2017-08-25T13:29:56.921Z,44.40
2017-08-25T13:32:24.469Z,43.20
2017-08-25T13:34:52.039Z,43.30
2017-08-25T13:37:19.528Z,44.00
2017-08-25T13:39:47.048Z,43.60
2017-08-25T13:42:14.614Z,43.70
2017-08-25T13:44:42.111Z,42.90
2017-08-25T13:47:09.648Z,42.90
2017-08-25T13:49:39.138Z,42.70
2017-08-25T13:52:06.631Z,43.50
2017-08-25T13:54:34.144Z,42.30
2017-08-25T13:57:01.637Z,42.20
2017-08-25T13:59:29.140Z,42.10
2017-08-25T14:01:56.649Z,41.90
2017-08-25T14:04:24.145Z,41.90
2017-08-25T14:06:51.682Z,41.50
2017-08-25T14:09:19.296Z,42.10
2017-08-25T14:11:46.852Z,42.50
2017-08-25T14:14:14.419Z,42.10
2017-08-25T14:16:41.951Z,42.70
2017-08-25T14:19:09.446Z,42.70
2017-08-25T14:21:36.988Z,42.50
2017-08-25T14:24:04.546Z,42.90
2017-08-25T14:26:32.808Z,42.30
2017-08-25T14:29:00.332Z,42.30
2017-08-25T14:31:27.820Z,42.20
2017-08-25T14:33:55.414Z,41.90
2017-08-25T14:36:22.946Z,42.30
2017-08-25T14:38:50.494Z,42.50
2017-08-25T14:41:17.996Z,42.70
2017-08-25T14:43:45.716Z,42.60
2017-08-25T14:46:13.284Z,43.50
2017-08-25T14:48:40.795Z,44.40
2017-08-25T14:51:08.400Z,44.00
2017-08-25T14:53:35.885Z,44.00
2017-08-25T14:56:03.416Z,44.10
2017-08-25T14:58:30.953Z,43.30
2017-08-25T15:00:58.481Z,43.90
2017-08-25T15:03:26.038Z,44.20
2017-08-25T15:05:53.529Z,44.50
2017-08-25T15:08:21.049Z,44.30
2017-08-25T15:10:48.572Z,44.80
2017-08-25T15:13:16.112Z,45.10
2017-08-25T15:15:43.644Z,45.90
2017-08-25T15:18:11.138Z,45.50
2017-08-25T15:20:38.695Z,46.10
2017-08-25T15:23:06.229Z,46.30
2017-08-25T15:25:33.740Z,46.40
2017-08-25T15:28:01.244Z,46.50
2017-08-25T15:30:28.821Z,46.90
2017-08-25T15:32:56.320Z,47.20
2017-08-25T15:35:23.843Z,47.60
2017-08-25T15:37:51.344Z,47.70
2017-08-25T15:40:18.900Z,47.60
2017-08-25T15:42:46.428Z,48.00
2017-08-25T15:45:13.960Z,48.10
2017-08-25T15:47:41.472Z,48.00
2017-08-25T15:50:08.982Z,48.20
2017-08-25T15:52:36.501Z,47.30
2017-08-25T15:55:04.054Z,47.60
2017-08-25T15:57:31.537Z,47.50
2017-08-25T15:59:59.040Z,47.40
2017-08-25T16:02:26.549Z,48.00
2017-08-25T16:04:54.137Z,48.10
2017-08-25T16:07:21.712Z,48.20
2017-08-25T16:09:49.381Z,48.30
2017-08-25T16:12:16.914Z,48.60
2017-08-25T16:14:44.472Z,48.90
2017-08-25T16:17:12.003Z,49.30
2017-08-25T16:19:39.507Z,49.40
2017-08-25T16:22:07.056Z,50.30
2017-08-25T16:24:34.583Z,50.40
2017-08-25T16:27:02.072Z,50.60
2017-08-25T16:29:29.589Z,50.90
2017-08-25T16:31:57.496Z,50.90
2017-08-25T16:34:25.029Z,51.00
2017-08-25T16:36:52.550Z,51.10
2017-08-25T16:39:20.057Z,51.40
2017-08-25T16:41:47.570Z,51.80
2017-08-25T16:44:15.062Z,51.80
2017-08-25T16:46:42.617Z,51.90
2017-08-25T16:49:10.194Z,51.90
2017-08-25T16:51:37.696Z,52.10
2017-08-25T16:54:05.330Z,52.00
2017-08-25T16:56:33.308Z,52.00
2017-08-25T16:59:00.888Z,52.10
2017-08-25T17:01:28.398Z,52.10
2017-08-25T17:03:55.933Z,52.10
2017-08-25T17:06:23.450Z,52.50
2017-08-25T17:08:50.956Z,52.40
2017-08-25T17:11:18.468Z,52.30
2017-08-25T17:13:45.972Z,52.40
2017-08-25T17:16:13.496Z,52.30
2017-08-25T17:18:41.128Z,52.40
2017-08-25T17:21:08.620Z,52.40
2017-08-25T17:23:36.176Z,52.70
2017-08-25T17:26:03.677Z,52.70
2017-08-25T17:28:31.301Z,52.90
2017-08-25T17:30:59.610Z,53.60
2017-08-25T17:33:27.104Z,53.50
2017-08-25T17:35:54.618Z,53.60
2017-08-25T17:38:22.125Z,54.00
2017-08-25T17:40:49.652Z,54.30
2017-08-25T17:43:17.174Z,54.40
2017-08-25T17:45:45.439Z,54.30
2017-08-25T17:48:13.008Z,54.30
2017-08-25T17:50:40.598Z,54.60
2017-08-25T17:53:08.097Z,54.70
2017-08-25T17:55:35.625Z,55.10
2017-08-25T17:58:03.177Z,55.60
2017-08-25T18:00:30.700Z,55.60
2017-08-25T18:02:58.204Z,55.60
2017-08-25T18:05:25.708Z,56.00
2017-08-25T18:07:53.229Z,56.00
2017-08-25T18:10:20.743Z,56.90
2017-08-25T18:12:48.265Z,57.20
2017-08-25T18:15:15.946Z,57.70
2017-08-25T18:17:43.443Z,57.90
2017-08-25T18:20:10.956Z,57.80
2017-08-25T18:22:38.527Z,58.00
2017-08-25T18:25:06.024Z,58.10
2017-08-25T18:27:33.549Z,58.30
2017-08-25T18:30:01.041Z,58.40
2017-08-25T18:32:28.566Z,58.60
2017-08-25T18:34:56.087Z,58.60
2017-08-25T18:37:23.590Z,58.70
2017-08-25T18:39:51.174Z,58.90
2017-08-25T18:42:18.690Z,59.10
2017-08-25T18:44:46.193Z,59.60
2017-08-25T18:47:13.699Z,59.90
2017-08-25T18:49:41.194Z,59.80
2017-08-25T18:52:08.741Z,60.20
2017-08-25T18:54:36.337Z,61.60
2017-08-25T18:57:03.860Z,62.40
2017-08-25T18:59:31.490Z,62.60
2017-08-25T19:01:59.085Z,62.90
2017-08-25T19:04:26.633Z,63.40
2017-08-25T19:06:54.144Z,63.40
2017-08-25T19:09:21.633Z,63.50
2017-08-25T19:11:49.184Z,63.80
2017-08-25T19:14:16.684Z,62.70
2017-08-25T19:16:44.204Z,62.90
2017-08-25T19:19:11.747Z,63.30
2017-08-25T19:21:39.247Z,64.10
2017-08-25T19:24:06.779Z,64.60
2017-08-25T19:26:34.304Z,65.00
2017-08-25T19:29:01.906Z,65.40
2017-08-25T19:31:29.421Z,65.50
2017-08-25T19:33:56.941Z,65.60
2017-08-25T19:36:24.464Z,65.90
2017-08-25T19:38:51.974Z,66.30
2017-08-25T19:41:19.501Z,66.40
2017-08-25T19:43:47.872Z,66.70
2017-08-25T19:46:15.373Z,67.30
2017-08-25T19:48:42.897Z,67.60
2017-08-25T19:51:10.409Z,67.70
2017-08-25T19:53:37.950Z,68.10
2017-08-25T19:56:05.459Z,68.20
2017-08-25T19:58:32.978Z,68.40
2017-08-25T20:01:00.810Z,68.40
2017-08-25T20:03:28.361Z,69.10
2017-08-25T20:05:56.006Z,68.80
2017-08-25T20:08:23.548Z,69.10
2017-08-25T20:10:51.122Z,69.30
2017-08-25T20:13:18.650Z,69.70
2017-08-25T20:15:46.169Z,70.10
2017-08-25T20:18:13.704Z,70.40
2017-08-25T20:20:41.265Z,70.50
2017-08-25T20:23:08.770Z,70.70
2017-08-25T20:25:36.298Z,70.80
2017-08-25T20:28:03.923Z,71.10
2017-08-25T20:30:31.481Z,71.40
2017-08-25T20:32:59.009Z,71.40
2017-08-25T20:35:26.556Z,71.50
2017-08-25T20:37:54.067Z,71.80
2017-08-25T20:40:21.643Z,71.40
2017-08-25T20:42:49.280Z,72.10
2017-08-25T20:45:16.807Z,72.30
2017-08-25T20:47:44.352Z,72.20
2017-08-25T20:50:11.861Z,72.50
2017-08-25T20:52:39.385Z,72.70
2017-08-25T20:55:06.934Z,72.80
2017-08-25T20:57:34.493Z,73.10
2017-08-25T21:00:02.075Z,73.50
2017-08-25T21:02:29.575Z,74.10
2017-08-25T21:04:57.196Z,74.30
2017-08-25T21:07:24.700Z,74.40
2017-08-25T21:09:52.208Z,74.90
2017-08-25T21:12:19.738Z,75.00
2017-08-25T21:14:47.321Z,75.20
2017-08-25T21:17:14.821Z,75.40
2017-08-25T21:19:42.361Z,75.60
2017-08-25T21:22:09.905Z,75.50
2017-08-25T21:24:37.450Z,75.50
2017-08-25T21:27:05.017Z,75.50
2017-08-25T21:29:32.518Z,75.70
2017-08-25T21:32:00.017Z,75.70
2017-08-25T21:34:27.548Z,76.70
2017-08-25T21:36:55.052Z,76.00
2017-08-25T21:39:22.569Z,76.00
2017-08-25T21:41:50.106Z,75.90
2017-08-25T21:44:17.616Z,76.00
2017-08-25T21:46:45.276Z,76.00
2017-08-25T21:49:12.772Z,75.90
2017-08-25T21:51:40.272Z,75.90
2017-08-25T21:54:07.839Z,75.90
2017-08-25T21:56:36.128Z,76.60
2017-08-25T21:59:03.653Z,75.80
2017-08-25T22:01:31.255Z,75.80
2017-08-25T22:03:58.760Z,75.90
2017-08-25T22:06:26.288Z,75.70
2017-08-25T22:08:53.830Z,75.80
2017-08-25T22:11:21.389Z,75.90
2017-08-25T22:13:48.893Z,76.10
2017-08-25T22:16:16.414Z,76.20
2017-08-25T22:18:43.965Z,76.50
2017-08-25T22:21:11.465Z,76.60
2017-08-25T22:23:39.070Z,76.50
2017-08-25T22:26:06.617Z,76.80
2017-08-25T22:28:34.109Z,76.60
2017-08-25T22:31:01.648Z,76.70
2017-08-25T22:33:29.152Z,77.00
2017-08-25T22:35:56.680Z,77.10
2017-08-25T22:38:24.195Z,76.90
2017-08-25T22:40:51.708Z,76.80
2017-08-25T22:43:19.244Z,77.10
2017-08-25T22:45:46.741Z,77.40
2017-08-25T22:48:14.235Z,77.50
2017-08-25T22:50:41.769Z,77.10
2017-08-25T22:53:09.280Z,77.00
2017-08-25T22:55:36.779Z,77.10
2017-08-25T22:58:04.335Z,77.00
2017-08-25T23:00:31.846Z,77.30
2017-08-25T23:02:59.386Z,77.20
2017-08-25T23:05:26.885Z,77.30
2017-08-25T23:07:54.398Z,77.50
2017-08-25T23:10:21.962Z,77.60
2017-08-25T23:12:49.504Z,77.60
2017-08-25T23:15:17.060Z,77.50
2017-08-25T23:17:44.641Z,77.70
2017-08-25T23:20:12.141Z,77.90
2017-08-25T23:22:39.728Z,78.10
2017-08-25T23:25:07.233Z,78.10
2017-08-25T23:27:34.734Z,78.10
2017-08-25T23:30:03.121Z,78.30
2017-08-25T23:32:30.623Z,78.30
2017-08-25T23:34:58.123Z,78.60
2017-08-25T23:37:25.649Z,78.90
2017-08-25T23:39:53.253Z,79.30
2017-08-25T23:42:20.773Z,79.40
2017-08-25T23:44:48.275Z,79.40
2017-08-25T23:47:15.797Z,79.40
2017-08-25T23:49:43.352Z,79.40
2017-08-25T23:52:10.947Z,79.20
2017-08-25T23:54:38.527Z,79.00
2017-08-25T23:57:06.067Z,78.70
2017-08-25T23:59:33.569Z,78.60
